Time;durP1;ratioP1;P1;durP2;ratioP2;P2;SDS_P1;SDS_P2;PMS_P1;PMS_P2;Temp;Humidity;BMP_temperature;BMP_pressure;BME280_temperature;BME280_humidity;BME280_pressure;Samples;Min_cycle;Max_cycle;Signal;HPM_P1;HPM_P2
2021/01/05 00:01:53;;;;;;;6.10;2.65;;;;;;;23.80;40.74;97704.22;4992121;28;20202;-65
2021/01/05 00:04:19;;;;;;;6.53;3.08;;;;;;;23.78;40.35;97707.09;4992731;28;20210;-63
2021/01/05 00:06:45;;;;;;;5.75;2.95;;;;;;;23.79;39.87;97702.56;4993336;28;20296;-65
2021/01/05 00:09:11;;;;;;;6.40;3.22;;;;;;;23.84;40.47;97710.88;4991517;28;20356;-64
2021/01/05 00:11:57;;;;;;;6.50;3.17;;;;;;;23.87;40.00;97707.00;4992158;28;20225;-65
2021/01/05 00:14:23;;;;;;;7.25;2.72;;;;;;;23.78;40.59;97711.56;4992893;28;20205;-64
2021/01/05 00:16:49;;;;;;;5.55;3.03;;;;;;;23.81;39.49;97705.88;4991372;28;20676;-63
2021/01/05 00:19:15;;;;;;;7.13;2.97;;;;;;;23.75;40.58;97706.63;4991253;28;20229;-64
2021/01/05 00:21:41;;;;;;;9.77;3.25;;;;;;;23.74;40.66;97710.31;4991538;28;20611;-64
2021/01/05 00:24:07;;;;;;;5.05;2.67;;;;;;;23.78;40.38;97709.75;4992020;28;20205;-64
2021/01/05 00:26:35;;;;;;;5.72;2.90;;;;;;;23.79;39.26;97711.38;4991496;28;20632;-64
2021/01/05 00:29:02;;;;;;;5.70;3.22;;;;;;;23.71;39.41;97710.69;4990894;28;20747;-64
2021/01/05 00:31:28;;;;;;;5.47;2.97;;;;;;;23.69;39.77;97707.38;4990329;28;20233;-64
2021/01/05 00:33:54;;;;;;;5.43;3.00;;;;;;;23.69;40.30;97712.72;4991776;28;20517;-64
2021/01/05 00:36:20;;;;;;;5.90;3.40;;;;;;;23.64;39.37;97706.06;4992107;28;20215;-64
2021/01/05 00:38:47;;;;;;;5.55;3.20;;;;;;;23.63;39.36;97704.44;4992003;28;20268;-64
2021/01/05 00:41:13;;;;;;;7.47;3.00;;;;;;;23.64;39.28;97711.41;4991674;28;20209;-65
2021/01/05 00:43:40;;;;;;;6.50;3.08;;;;;;;23.62;40.06;97713.44;4992459;28;20216;-65
2021/01/05 00:46:09;;;;;;;5.43;3.03;;;;;;;23.54;40.41;97708.22;4993054;28;20543;-64
2021/01/05 00:48:35;;;;;;;4.43;2.83;;;;;;;23.54;39.98;97713.53;4990278;28;20301;-64
2021/01/05 00:51:01;;;;;;;5.53;2.75;;;;;;;23.73;39.23;97716.66;4992133;28;20287;-64
2021/01/05 00:53:27;;;;;;;4.65;2.53;;;;;;;23.79;40.07;97723.91;4991612;28;20209;-64
2021/01/05 00:55:53;;;;;;;6.10;2.90;;;;;;;23.70;38.95;97715.19;4991760;28;20292;-64
2021/01/05 00:58:23;;;;;;;4.68;2.65;;;;;;;23.69;40.22;97720.72;4991832;28;20233;-64
2021/01/05 01:00:49;;;;;;;6.35;2.78;;;;;;;23.67;39.56;97720.09;4993330;28;20201;-64
2021/01/05 01:03:16;;;;;;;6.70;2.97;;;;;;;23.70;38.95;97725.03;4991408;28;20518;-64
2021/01/05 01:05:42;;;;;;;5.88;3.20;;;;;;;23.61;39.68;97722.44;4990167;28;20618;-65
2021/01/05 01:08:09;;;;;;;7.20;3.25;;;;;;;23.69;39.75;97728.72;4992049;28;20206;-64
2021/01/05 01:10:35;;;;;;;7.57;3.15;;;;;;;23.73;39.97;97730.84;4990762;28;20589;-63
2021/01/05 01:13:01;;;;;;;6.15;3.28;;;;;;;23.61;39.21;97741.13;4990712;28;20237;-63
2021/01/05 01:15:27;;;;;;;5.57;2.95;;;;;;;23.62;40.45;97728.63;4990585;28;20201;-63
2021/01/05 01:17:53;;;;;;;5.50;2.70;;;;;;;23.61;41.02;97730.44;4991700;28;20673;-63
2021/01/05 01:20:20;;;;;;;6.60;3.25;;;;;;;23.54;40.93;97726.88;4991024;28;20361;-63
2021/01/05 01:22:46;;;;;;;5.78;3.05;;;;;;;23.50;40.98;97719.41;4991993;28;20217;-63
2021/01/05 01:25:13;;;;;;;5.03;2.97;;;;;;;23.54;41.20;97731.41;4990561;28;20232;-63
2021/01/05 01:27:39;;;;;;;5.85;3.15;;;;;;;23.44;41.20;97721.00;4991895;28;20213;-64
2021/01/05 01:30:07;;;;;;;7.43;3.65;;;;;;;23.42;40.57;97720.38;4990960;28;20236;-63
2021/01/05 01:32:33;;;;;;;4.30;2.92;;;;;;;23.51;40.93;97724.56;4991070;28;20310;-63
2021/01/05 01:34:59;;;;;;;9.15;3.40;;;;;;;23.40;41.17;97730.41;4991314;28;20201;-62
2021/01/05 01:37:26;;;;;;;6.20;3.30;;;;;;;23.38;41.67;97727.06;4991320;28;20227;-63
2021/01/05 01:39:52;;;;;;;5.57;3.15;;;;;;;23.41;40.60;97724.84;4990735;28;20252;-63
2021/01/05 01:42:20;;;;;;;4.88;3.05;;;;;;;23.41;41.20;97730.19;4991172;28;20263;-64
2021/01/05 01:44:47;;;;;;;6.72;3.10;;;;;;;23.35;41.40;97730.09;4990827;28;20312;-63
2021/01/05 01:47:19;;;;;;;6.15;3.15;;;;;;;23.32;40.62;97717.16;4992040;28;20206;-63
2021/01/05 01:49:46;;;;;;;8.30;3.22;;;;;;;23.35;41.79;97725.59;4991885;28;20321;-63
2021/01/05 01:52:12;;;;;;;6.43;3.20;;;;;;;23.33;40.66;97719.63;4991661;28;20233;-62
2021/01/05 01:55:08;;;;;;;7.32;3.08;;;;;;;23.27;41.81;97726.50;4990586;28;20209;-62
2021/01/05 01:58:06;;;;;;;6.35;3.38;;;;;;;23.32;41.00;97730.47;4993717;28;20205;-63
2021/01/05 02:00:46;;;;;;;5.28;3.05;;;;;;;23.28;41.36;97730.84;4992997;28;20205;-62
2021/01/05 02:03:26;;;;;;;4.47;3.13;;;;;;;23.32;41.57;97728.63;4991095;28;20213;-64
2021/01/05 02:06:19;;;;;;;8.30;3.47;;;;;;;23.32;40.62;97731.31;4991556;28;20213;-64
2021/01/05 02:08:59;;;;;;;5.45;3.30;;;;;;;23.23;41.72;97729.72;4988287;28;20226;-63
2021/01/05 02:11:45;;;;;;;5.50;3.20;;;;;;;23.33;41.09;97724.13;4991182;28;20229;-63
2021/01/05 02:14:23;;;;;;;7.22;3.20;;;;;;;23.30;41.43;97729.81;4991820;28;20268;-63
2021/01/05 02:17:16;;;;;;;6.68;3.08;;;;;;;23.26;41.30;97716.03;4991392;28;20636;-63
2021/01/05 02:19:47;;;;;;;5.10;2.92;;;;;;;23.31;40.91;97728.81;4990828;28;20308;-64
2021/01/05 02:22:21;;;;;;;7.07;3.67;;;;;;;23.20;40.62;97719.41;4991731;28;20209;-63
2021/01/05 02:24:57;;;;;;;7.03;3.30;;;;;;;23.19;40.62;97723.94;4991264;28;20215;-63
2021/01/05 02:27:24;;;;;;;7.43;3.00;;;;;;;23.27;40.94;97715.84;4990920;28;20209;-64
2021/01/05 02:29:56;;;;;;;5.20;2.90;;;;;;;23.46;40.49;97708.31;4989768;28;20541;-63
2021/01/05 02:32:36;;;;;;;6.88;3.78;;;;;;;23.36;40.45;97710.41;4990237;28;20225;-63
2021/01/05 02:35:18;;;;;;;5.85;3.33;;;;;;;23.35;40.98;97706.09;4991511;28;20217;-64
2021/01/05 02:37:57;;;;;;;5.78;2.85;;;;;;;23.50;40.37;97704.25;4991109;28;20201;-64
2021/01/05 02:40:32;;;;;;;5.85;2.90;;;;;;;23.42;40.59;97709.69;4991292;28;20291;-63
2021/01/05 02:43:33;;;;;;;5.07;3.15;;;;;;;23.26;40.63;97719.53;4990889;28;20284;-63
2021/01/05 02:46:25;;;;;;;5.45;3.28;;;;;;;23.52;40.08;97710.25;4990689;28;20241;-63
2021/01/05 02:49:07;;;;;;;8.00;3.20;;;;;;;23.59;39.77;97705.00;4990732;28;20229;-63
2021/01/05 02:52:11;;;;;;;5.97;2.90;;;;;;;23.56;39.79;97708.84;4990961;28;20243;-62
2021/01/05 02:55:07;;;;;;;5.95;3.30;;;;;;;23.51;40.10;97700.56;4990593;28;20206;-63
2021/01/05 02:57:51;;;;;;;6.10;3.60;;;;;;;23.56;40.17;97703.50;4991090;28;20213;-63
2021/01/05 03:00:59;;;;;;;5.70;3.50;;;;;;;23.49;40.11;97694.59;4990518;28;20332;-62
2021/01/05 03:03:42;;;;;;;7.22;3.67;;;;;;;23.54;39.93;97688.72;4991588;28;20217;-63
2021/01/05 03:06:31;;;;;;;7.82;3.53;;;;;;;23.48;40.22;97692.13;4991191;28;20213;-63
2021/01/05 03:09:29;;;;;;;5.57;3.47;;;;;;;23.41;39.14;97692.03;4987797;28;20713;-60
2021/01/05 03:12:12;;;;;;;6.45;3.38;;;;;;;23.47;39.62;97691.28;4991420;28;20235;-62
2021/01/05 03:14:50;;;;;;;7.22;3.35;;;;;;;23.40;39.77;97693.06;4992157;28;20218;-63
2021/01/05 03:17:25;;;;;;;6.63;3.70;;;;;;;23.27;39.48;97694.50;4990137;28;20569;-63
2021/01/05 03:20:01;;;;;;;6.97;3.60;;;;;;;23.36;39.87;97697.09;4990252;28;20225;-63
2021/01/05 03:22:31;;;;;;;6.85;3.35;;;;;;;23.35;39.29;97700.75;4991050;28;20205;-63
2021/01/05 03:24:59;;;;;;;6.70;3.70;;;;;;;23.30;40.06;97697.81;4991578;28;20205;-63
2021/01/05 03:27:26;;;;;;;8.15;3.25;;;;;;;23.33;39.84;97703.63;4989865;28;20292;-63
2021/01/05 03:29:54;;;;;;;5.97;3.50;;;;;;;23.37;39.87;97704.91;4988374;28;20551;-63
2021/01/05 03:32:21;;;;;;;6.38;3.55;;;;;;;23.26;40.14;97698.22;4990145;28;20237;-63
2021/01/05 03:34:47;;;;;;;5.25;3.47;;;;;;;23.24;40.30;97704.72;4992681;28;20201;-64
2021/01/05 03:37:14;;;;;;;7.40;3.40;;;;;;;23.30;39.82;97705.81;4993646;28;20205;-63
2021/01/05 03:39:40;;;;;;;6.10;3.45;;;;;;;23.23;40.14;97711.06;4993836;28;20360;-63
2021/01/05 03:42:06;;;;;;;6.20;3.45;;;;;;;23.18;39.84;97708.97;4992593;28;20270;-60
2021/01/05 03:44:34;;;;;;;7.88;3.67;;;;;;;23.26;40.59;97698.22;4991907;28;20517;-62
2021/01/05 03:47:00;;;;;;;5.45;3.50;;;;;;;23.25;40.81;97696.53;4994018;28;20209;-63
2021/01/05 03:49:27;;;;;;;5.38;3.22;;;;;;;23.14;40.31;97699.66;4992600;28;20245;-63
2021/01/05 03:51:53;;;;;;;9.77;4.82;;;;;;;23.18;40.57;97700.09;4993696;28;20233;-63
2021/01/05 03:54:22;;;;;;;5.32;3.40;;;;;;;23.39;39.88;97691.38;4992836;28;20201;-63
2021/01/05 03:56:48;;;;;;;5.93;3.80;;;;;;;23.32;39.77;97701.97;4994381;28;20244;-63
2021/01/05 03:59:14;;;;;;;5.72;3.67;;;;;;;23.26;40.05;97698.22;4993605;28;20233;-64
2021/01/05 04:01:51;;;;;;;6.00;3.47;;;;;;;23.28;39.62;97706.84;4992145;28;20618;-62
2021/01/05 04:04:18;;;;;;;7.80;3.67;;;;;;;23.32;39.57;97704.63;4992443;28;20228;-62
2021/01/05 04:06:44;;;;;;;6.30;3.85;;;;;;;23.26;39.98;97703.53;4992001;28;20343;-62
2021/01/05 04:09:11;;;;;;;6.78;3.70;;;;;;;23.22;39.81;97704.09;4992595;28;20263;-62
2021/01/05 04:11:37;;;;;;;7.85;3.72;;;;;;;23.24;39.22;97704.72;4993257;28;20232;-62
2021/01/05 04:14:03;;;;;;;7.13;3.80;;;;;;;23.20;39.32;97709.59;4992089;28;20536;-63
2021/01/05 04:16:31;;;;;;;10.95;4.03;;;;;;;23.18;38.85;97711.63;4992240;28;20271;-63
2021/01/05 04:18:57;;;;;;;7.28;4.10;;;;;;;23.26;38.83;97705.34;4992679;28;20280;-63
2021/01/05 04:21:23;;;;;;;7.57;3.80;;;;;;;23.19;38.92;97707.94;4991793;28;20213;-61
2021/01/05 04:23:50;;;;;;;7.78;3.70;;;;;;;23.13;40.05;97710.50;4992138;28;20614;-64
2021/01/05 04:26:16;;;;;;;6.00;3.58;;;;;;;23.03;39.34;97705.41;4993064;28;20205;-63
2021/01/05 04:28:42;;;;;;;7.35;3.63;;;;;;;23.02;39.12;97695.75;4991496;28;20225;-63
2021/01/05 04:31:08;;;;;;;6.82;3.78;;;;;;;22.96;39.29;97693.81;4992706;28;20234;-62
2021/01/05 04:33:34;;;;;;;7.22;4.07;;;;;;;22.99;39.63;97693.44;4991757;28;20271;-63
2021/01/05 04:36:01;;;;;;;8.23;4.85;;;;;;;23.01;38.44;97696.75;4991512;28;20677;-64
2021/01/05 04:38:27;;;;;;;8.55;4.30;;;;;;;23.26;38.60;97695.53;4992329;28;20225;-64
2021/01/05 04:40:54;;;;;;;6.82;4.20;;;;;;;23.23;38.82;97693.25;4993211;28;20227;-63
2021/01/05 04:43:41;;;;;;;6.85;4.03;;;;;;;23.21;39.13;97708.56;4993318;28;20592;-62
2021/01/05 04:46:23;;;;;;;5.57;3.55;;;;;;;23.25;38.83;97701.88;4993215;28;20209;-64
2021/01/05 04:48:55;;;;;;;5.82;3.63;;;;;;;23.48;39.29;97706.25;4992320;28;20236;-62
2021/01/05 04:51:33;;;;;;;6.65;3.97;;;;;;;23.38;38.12;97711.06;4991553;28;20244;-63
2021/01/05 04:54:05;;;;;;;6.90;3.80;;;;;;;23.37;38.48;97717.41;4992168;28;20688;-63
2021/01/05 04:56:51;;;;;;;5.68;3.75;;;;;;;23.52;38.22;97722.75;4993852;28;20225;-63
2021/01/05 04:59:21;;;;;;;7.38;3.63;;;;;;;23.49;38.73;97723.13;4993168;28;20344;-63
2021/01/05 05:01:50;;;;;;;5.80;3.55;;;;;;;23.45;38.87;97723.47;4993219;28;20259;-63
2021/01/05 05:04:26;;;;;;;5.82;3.47;;;;;;;23.43;38.89;97720.19;4991272;28;20656;-63
2021/01/05 05:06:57;;;;;;;8.18;4.28;;;;;;;23.45;38.75;97722.66;4992253;28;20644;-62
2021/01/05 05:09:34;;;;;;;6.10;3.58;;;;;;;23.44;37.86;97727.16;4992925;28;20324;-62
2021/01/05 05:12:17;;;;;;;6.35;3.83;;;;;;;23.41;38.25;97722.19;4991582;28;20232;-62
2021/01/05 05:14:52;;;;;;;6.22;3.60;;;;;;;23.51;37.86;97715.75;4993500;28;20240;-63
2021/01/05 05:17:42;;;;;;;6.93;4.00;;;;;;;23.42;38.17;97723.03;4992570;28;20204;-63
2021/01/05 05:20:34;;;;;;;6.07;3.55;;;;;;;23.39;38.70;97728.72;4991855;28;20243;-62
2021/01/05 05:23:21;;;;;;;6.85;3.90;;;;;;;23.47;38.02;97728.63;4986999;28;20292;-63
2021/01/05 05:25:56;;;;;;;7.38;3.92;;;;;;;23.44;37.88;97723.66;4992482;28;20269;-63
2021/01/05 05:28:29;;;;;;;6.80;4.05;;;;;;;23.39;38.08;97723.41;4991722;28;20260;-61
2021/01/05 05:30:56;;;;;;;7.88;4.25;;;;;;;23.39;37.65;97720.72;4991778;28;20201;-63
2021/01/05 05:33:26;;;;;;;7.15;4.20;;;;;;;23.43;37.65;97730.00;4991650;28;20220;-61
2021/01/05 05:36:08;;;;;;;6.55;4.13;;;;;;;23.35;37.69;97730.94;4991687;28;20332;-63
2021/01/05 05:39:02;;;;;;;6.45;3.90;;;;;;;23.43;38.29;97740.66;4992454;28;20712;-64
2021/01/05 05:41:38;;;;;;;6.65;4.07;;;;;;;23.45;37.64;97736.00;4992157;28;20259;-62
2021/01/05 05:44:19;;;;;;;8.63;4.10;;;;;;;23.41;37.75;97737.38;4991878;28;20283;-63
2021/01/05 05:46:49;;;;;;;5.78;3.78;;;;;;;23.45;37.69;97742.16;4992155;28;20699;-62
2021/01/05 05:49:26;;;;;;;7.88;4.15;;;;;;;23.50;38.20;97746.94;4991968;28;20235;-63
2021/01/05 05:51:57;;;;;;;7.82;4.32;;;;;;;23.44;37.53;97748.50;4992252;28;20231;-63
2021/01/05 05:54:24;;;;;;;8.85;4.53;;;;;;;23.41;38.70;97748.03;4991525;28;20205;-63
2021/01/05 05:57:06;;;;;;;7.90;4.50;;;;;;;23.46;38.29;97750.97;4990004;28;20244;-62
2021/01/05 05:59:44;;;;;;;9.25;3.50;;;;;;;23.39;37.80;97756.22;4991793;28;20225;-62
2021/01/05 06:02:12;;;;;;;6.45;3.50;;;;;;;23.35;37.82;97759.44;4991115;28;20213;-63
2021/01/05 06:04:39;;;;;;;7.15;3.90;;;;;;;23.39;38.02;97763.41;4991596;28;20211;-63
2021/01/05 06:07:05;;;;;;;6.68;4.38;;;;;;;23.31;37.85;97763.50;4990404;28;20209;-62
2021/01/05 06:09:31;;;;;;;12.18;4.93;;;;;;;23.23;37.89;97767.91;4990640;28;20225;-63
2021/01/05 06:11:57;;;;;;;8.57;4.75;;;;;;;23.40;37.41;97770.41;4991755;28;20235;-62
2021/01/05 06:14:23;;;;;;;6.63;4.07;;;;;;;23.36;36.92;97769.91;4989418;28;20220;-63
2021/01/05 06:16:50;;;;;;;7.13;4.32;;;;;;;23.28;37.06;97775.34;4989528;28;20677;-63
2021/01/05 06:19:16;;;;;;;26.08;5.38;;;;;;;23.19;39.28;97781.78;4991653;28;20280;-60
2021/01/05 06:21:43;;;;;;;9.63;3.50;;;;;;;23.23;38.67;97781.22;4991754;28;20355;-64
2021/01/05 06:24:09;;;;;;;6.53;3.63;;;;;;;23.28;39.31;97781.50;4989369;28;20219;-64
2021/01/05 06:26:35;;;;;;;6.20;3.33;;;;;;;23.35;39.73;97773.63;4987832;28;20548;-63
2021/01/05 06:29:01;;;;;;;7.07;3.20;;;;;;;23.31;39.44;97774.16;4990658;28;20312;-64
2021/01/05 06:31:27;;;;;;;9.00;3.40;;;;;;;23.38;39.99;97770.59;4989822;28;20291;-63
2021/01/05 06:33:54;;;;;;;9.25;3.00;;;;;;;23.37;39.59;97770.78;4989601;28;20343;-65
2021/01/05 06:36:20;;;;;;;11.10;3.50;;;;;;;23.42;39.52;97781.72;4989680;28;20652;-63
2021/01/05 06:38:47;;;;;;;6.65;3.40;;;;;;;23.46;39.39;97778.50;4989895;28;20286;-65
2021/01/05 06:41:13;;;;;;;6.07;3.30;;;;;;;23.53;39.78;97781.28;4990801;28;20575;-65
2021/01/05 06:43:39;;;;;;;7.88;3.35;;;;;;;23.52;40.20;97779.59;4989213;28;20213;-65
2021/01/05 06:46:05;;;;;;;10.32;3.25;;;;;;;23.58;39.80;97781.53;4989390;28;20682;-64
2021/01/05 06:48:31;;;;;;;5.72;3.53;;;;;;;23.72;39.65;97781.72;4989127;28;20315;-64
2021/01/05 06:50:58;;;;;;;7.55;3.33;;;;;;;23.71;40.21;97778.22;4989518;28;20209;-64
2021/01/05 06:53:25;;;;;;;5.72;2.83;;;;;;;23.71;40.54;97785.41;4989712;28;20233;-63
2021/01/05 06:55:51;;;;;;;10.35;3.50;;;;;;;23.74;42.19;97785.84;4989688;28;20308;-65
2021/01/05 06:58:17;;;;;;;8.23;3.33;;;;;;;23.79;42.17;97782.63;4989832;28;20312;-61
2021/01/05 07:00:43;;;;;;;15.82;3.35;;;;;;;23.82;41.17;97774.28;4989456;28;20221;-64
2021/01/05 07:03:09;;;;;;;11.85;3.85;;;;;;;23.82;40.91;97782.31;4991900;28;20704;-67
2021/01/05 07:05:35;;;;;;;12.18;3.65;;;;;;;23.77;40.22;97785.50;4996805;28;20206;-66
2021/01/05 07:08:02;;;;;;;7.30;3.65;;;;;;;23.75;40.99;97784.84;4990945;28;20759;-66
2021/01/05 07:10:28;;;;;;;7.90;4.32;;;;;;;23.86;39.65;97788.91;4993025;28;20589;-66
2021/01/05 07:12:54;;;;;;;9.07;4.47;;;;;;;23.80;40.19;97789.66;4993472;28;20316;-66
2021/01/05 07:15:21;;;;;;;9.48;3.50;;;;;;;23.80;39.41;97784.31;4994428;28;20334;-66
2021/01/05 07:17:47;;;;;;;9.48;4.05;;;;;;;23.90;40.05;97792.88;4993862;28;20209;-66
2021/01/05 07:20:15;;;;;;;7.85;4.07;;;;;;;23.88;39.43;97788.72;4992934;28;20275;-66
2021/01/05 07:22:41;;;;;;;8.98;4.75;;;;;;;23.89;39.65;97793.88;4994177;28;20305;-66
2021/01/05 07:25:12;;;;;;;7.50;3.85;;;;;;;23.85;39.34;97786.44;4993239;28;20565;-66
2021/01/05 07:27:38;;;;;;;11.13;4.50;;;;;;;23.93;39.79;97786.34;4993966;28;20216;-66
2021/01/05 07:30:06;;;;;;;8.35;3.60;;;;;;;23.84;39.25;97769.59;4993349;28;20696;-66
2021/01/05 07:32:32;;;;;;;8.00;3.80;;;;;;;23.79;39.15;97793.31;4992624;28;20663;-66
2021/01/05 07:34:58;;;;;;;9.82;3.80;;;;;;;23.78;39.12;97802.31;4993680;28;20659;-66
2021/01/05 07:37:29;;;;;;;10.68;4.05;;;;;;;23.73;39.74;97802.03;4993715;28;20223;-66
2021/01/05 07:39:55;;;;;;;9.15;3.90;;;;;;;23.69;39.85;97806.09;4993635;28;20300;-67
2021/01/05 07:42:25;;;;;;;8.55;3.67;;;;;;;23.72;40.18;97808.41;4992151;28;20231;-66
2021/01/05 07:44:52;;;;;;;7.40;4.00;;;;;;;23.63;39.56;97811.16;4993414;28;20296;-67
2021/01/05 07:47:20;;;;;;;8.57;4.10;;;;;;;23.72;39.23;97806.56;4993710;28;20212;-65
2021/01/05 07:49:47;;;;;;;10.85;4.43;;;;;;;23.74;40.05;97803.72;4992416;28;20230;-67
2021/01/05 07:52:18;;;;;;;6.70;3.42;;;;;;;23.75;39.25;97810.72;4992947;28;20233;-67
2021/01/05 07:54:44;;;;;;;13.27;4.50;;;;;;;23.65;39.00;97817.16;4994155;28;20205;-65
2021/01/05 07:57:10;;;;;;;8.80;3.88;;;;;;;23.65;39.98;97811.00;4993591;28;20209;-67
2021/01/05 07:59:38;;;;;;;9.57;4.30;;;;;;;23.73;38.57;97818.06;4992269;28;20281;-67
2021/01/05 08:02:04;;;;;;;9.50;4.82;;;;;;;23.74;38.92;97817.06;4993559;28;20276;-67
2021/01/05 08:04:30;;;;;;;9.95;5.25;;;;;;;23.74;39.16;97809.06;4993557;28;20292;-67
2021/01/05 08:06:58;;;;;;;7.97;4.22;;;;;;;23.62;38.98;97814.84;4993494;28;20241;-67
2021/01/05 08:09:24;;;;;;;12.52;4.05;;;;;;;23.58;39.23;97813.56;4991496;28;20241;-67
2021/01/05 08:11:50;;;;;;;9.55;3.85;;;;;;;23.60;40.40;97806.19;4991531;28;20264;-67
2021/01/05 08:14:16;;;;;;;6.88;3.72;;;;;;;23.62;40.44;97809.50;4992352;28;20202;-67
2021/01/05 08:16:47;;;;;;;11.65;3.70;;;;;;;23.72;40.02;97808.41;4992074;28;20209;-68
2021/01/05 08:19:13;;;;;;;10.82;3.78;;;;;;;23.57;40.26;97806.56;4992929;28;20316;-68
2021/01/05 08:21:40;;;;;;;10.40;3.85;;;;;;;23.49;40.46;97809.31;4991597;28;20237;-69
2021/01/05 08:24:06;;;;;;;14.80;4.10;;;;;;;23.72;40.67;97803.91;4992715;28;20237;-67
2021/01/05 08:26:32;;;;;;;16.88;4.60;;;;;;;23.67;39.61;97808.13;4991450;28;20216;-68
2021/01/05 08:28:58;;;;;;;13.75;4.43;;;;;;;23.58;38.68;97813.56;4992765;28;20324;-66
2021/01/05 08:31:31;;;;;;;17.92;3.97;;;;;;;23.59;40.50;97809.88;4992431;28;20261;-67
2021/01/05 08:33:58;;;;;;;26.48;3.92;;;;;;;23.69;38.37;97806.09;4991837;28;20296;-67
2021/01/05 08:36:27;;;;;;;7.60;4.03;;;;;;;23.42;39.32;97803.88;4991184;28;20292;-66
2021/01/05 08:38:53;;;;;;;12.70;3.53;;;;;;;23.42;40.08;97797.72;4992850;28;20259;-66
2021/01/05 08:41:19;;;;;;;8.70;3.25;;;;;;;23.48;40.44;97807.63;4994732;28;20281;-67
2021/01/05 08:43:45;;;;;;;19.00;3.55;;;;;;;23.57;40.77;97806.56;4991237;28;20717;-66
2021/01/05 08:46:19;;;;;;;9.35;3.40;;;;;;;23.68;40.30;97807.09;4991405;28;20343;-66
2021/01/05 08:48:45;;;;;;;13.32;3.75;;;;;;;23.72;40.32;97797.75;4992932;28;20225;-67
2021/01/05 08:51:12;;;;;;;6.22;3.35;;;;;;;23.73;40.48;97794.03;4992193;28;20268;-66
2021/01/05 08:53:38;;;;;;;10.02;3.42;;;;;;;23.70;40.83;97800.59;4992247;28;20288;-67
2021/01/05 08:56:04;;;;;;;7.20;3.50;;;;;;;23.71;40.04;97801.41;4991735;28;20241;-67
2021/01/05 08:58:31;;;;;;;10.65;3.20;;;;;;;23.74;39.06;97798.38;4990973;28;20229;-67
2021/01/05 09:00:57;;;;;;;9.82;3.50;;;;;;;23.63;40.29;97807.66;4991237;28;20263;-67
2021/01/05 09:03:23;;;;;;;10.35;3.42;;;;;;;23.59;39.24;97795.69;4991916;28;20240;-66
2021/01/05 09:05:49;;;;;;;5.72;3.20;;;;;;;23.56;40.47;97804.88;4991534;28;20292;-67
2021/01/05 09:08:16;;;;;;;4.55;2.80;;;;;;;23.49;40.90;97798.63;4990728;28;20237;-67
2021/01/05 09:10:42;;;;;;;4.20;2.70;;;;;;;23.50;40.50;97800.31;4990054;28;20307;-65
2021/01/05 09:13:08;;;;;;;5.43;2.75;;;;;;;23.48;40.54;97812.16;4991965;28;20305;-66
2021/01/05 09:15:34;;;;;;;25.90;4.68;;;;;;;23.53;40.60;97802.63;4991694;28;20223;-66
2021/01/05 09:18:02;;;;;;;30.48;4.15;;;;;;;23.68;40.21;97810.63;4990575;28;20271;-67
2021/01/05 09:20:28;;;;;;;22.60;4.75;;;;;;;23.64;39.15;97810.13;4992003;28;20271;-66
2021/01/05 09:22:55;;;;;;;15.73;4.00;;;;;;;23.76;40.37;97807.03;4991890;28;20396;-67
2021/01/05 09:25:22;;;;;;;26.73;4.80;;;;;;;23.36;40.96;97807.25;4990917;28;20224;-65
2021/01/05 09:27:50;;;;;;;16.45;4.28;;;;;;;23.33;41.61;97804.97;4991408;28;20301;-73
2021/01/05 09:30:19;;;;;;;19.60;4.07;;;;;;;23.29;41.76;97806.34;4990684;28;20657;-71
2021/01/05 09:32:45;;;;;;;19.70;3.50;;;;;;;23.39;42.73;97814.91;4991806;28;20308;-73
2021/01/05 09:35:12;;;;;;;23.05;3.95;;;;;;;23.28;43.04;97810.00;4990104;28;20247;-71
2021/01/05 09:37:40;;;;;;;16.95;4.05;;;;;;;23.20;42.89;97810.94;4991919;28;20661;-75
2021/01/05 09:40:07;;;;;;;9.02;3.75;;;;;;;23.22;42.74;97808.91;4988711;28;20388;-71
2021/01/05 09:42:34;;;;;;;13.13;4.05;;;;;;;23.38;41.92;97812.41;4990055;28;20233;-72
2021/01/05 09:45:01;;;;;;;24.50;4.20;;;;;;;23.36;42.57;97812.59;4989782;28;20208;-70
2021/01/05 09:47:27;;;;;;;12.75;3.78;;;;;;;23.24;42.58;97812.22;4988519;28;20296;-69
2021/01/05 09:49:53;;;;;;;14.82;4.18;;;;;;;23.33;42.88;97809.47;4990332;28;20225;-69
2021/01/05 09:52:19;;;;;;;17.58;3.60;;;;;;;23.32;42.69;97813.97;4990726;28;20225;-70
2021/01/05 09:54:48;;;;;;;17.10;3.28;;;;;;;23.35;41.95;97813.63;4990815;28;20292;-70
2021/01/05 09:57:17;;;;;;;20.00;3.70;;;;;;;23.39;42.22;97814.09;4991689;28;20252;-69
2021/01/05 09:59:44;;;;;;;11.88;3.65;;;;;;;23.37;43.16;97811.59;4991718;28;20249;-71
2021/01/05 10:02:12;;;;;;;13.55;4.30;;;;;;;23.23;41.92;97813.22;4989163;28;20550;-69
2021/01/05 10:04:38;;;;;;;24.58;5.18;;;;;;;23.03;40.45;97825.34;4991091;28;20236;-70
2021/01/05 10:07:05;;;;;;;18.80;4.57;;;;;;;23.18;40.46;97820.09;4989270;28;20205;-69
2021/01/05 10:09:31;;;;;;;9.40;3.90;;;;;;;23.22;41.80;97808.09;4990160;28;20241;-68
2021/01/05 10:11:57;;;;;;;14.43;4.53;;;;;;;23.20;42.35;97815.41;4990852;28;20232;-70
2021/01/05 10:14:23;;;;;;;17.60;4.75;;;;;;;23.19;42.03;97808.44;4989851;28;20201;-71
2021/01/05 10:16:55;;;;;;;17.75;3.92;;;;;;;23.22;41.99;97808.09;4991943;28;20205;-72
2021/01/05 10:19:22;;;;;;;15.32;3.67;;;;;;;23.27;42.12;97805.69;4990798;28;20244;-69
2021/01/05 10:21:48;;;;;;;13.80;3.30;;;;;;;23.44;41.57;97801.03;4989270;28;20289;-71
2021/01/05 10:24:15;;;;;;;7.85;3.08;;;;;;;23.47;41.93;97800.66;4989724;28;20292;-70
2021/01/05 10:26:48;;;;;;;11.38;3.72;;;;;;;23.31;42.42;97809.66;4988890;28;20279;-72
2021/01/05 10:29:15;;;;;;;13.48;3.45;;;;;;;23.31;41.86;97801.66;4990543;28;20315;-70
2021/01/05 10:31:44;;;;;;;17.02;5.63;;;;;;;23.25;39.12;97802.38;4989147;28;20265;-70
2021/01/05 10:34:12;;;;;;;16.33;5.88;;;;;;;23.24;37.85;97790.06;4990817;28;20685;-71
2021/01/05 10:36:39;;;;;;;26.23;5.05;;;;;;;23.30;39.49;97788.50;4991170;28;20260;-72
2021/01/05 10:39:06;;;;;;;18.70;4.40;;;;;;;23.25;40.53;97786.38;4989248;28;20312;-71
2021/01/05 10:41:38;;;;;;;10.73;4.00;;;;;;;23.51;40.58;97790.47;4991065;28;20212;-73
2021/01/05 10:44:05;;;;;;;21.65;4.75;;;;;;;23.49;40.22;97787.97;4998259;28;20245;-75
2021/01/05 10:46:32;;;;;;;17.25;4.18;;;;;;;23.44;40.62;97782.34;4998125;28;20696;-72
2021/01/05 10:48:58;;;;;;;18.83;4.15;;;;;;;23.34;41.43;97774.63;4992471;28;20236;-71
2021/01/05 10:51:25;;;;;;;13.95;3.75;;;;;;;23.60;40.36;97779.50;4992815;28;20204;-71
2021/01/05 10:53:52;;;;;;;15.32;3.13;;;;;;;23.52;40.74;97779.59;4993397;28;20201;-70
2021/01/05 10:56:19;;;;;;;16.35;3.80;;;;;;;23.43;40.97;97784.19;4992648;28;20641;-70
2021/01/05 10:58:46;;;;;;;11.07;3.03;;;;;;;23.47;41.55;97779.31;4992147;28;20251;-70
2021/01/05 11:01:13;;;;;;;19.55;3.78;;;;;;;23.52;41.46;97776.13;4993035;28;20260;-70
2021/01/05 11:03:39;;;;;;;9.43;3.15;;;;;;;23.45;41.03;97776.03;4993649;28;20212;-70
2021/01/05 11:06:07;;;;;;;14.43;3.70;;;;;;;23.44;41.20;97775.16;4998029;28;20700;-73
2021/01/05 11:08:35;;;;;;;11.45;2.90;;;;;;;23.53;41.74;97761.75;5010355;28;20273;-74
2021/01/05 11:11:04;;;;;;;13.85;3.28;;;;;;;23.55;41.39;97763.22;5004466;28;20589;-74
2021/01/05 11:13:31;;;;;;;22.98;4.13;;;;;;;23.48;41.40;97758.81;4999872;28;20233;-73
2021/01/05 11:15:58;;;;;;;26.17;4.00;;;;;;;23.41;42.25;97764.88;4998520;28;20205;-75
2021/01/05 11:18:24;;;;;;;22.58;3.67;;;;;;;23.50;42.12;97762.97;4995917;28;20260;-75
2021/01/05 11:20:50;;;;;;;31.52;4.30;;;;;;;23.65;42.03;97760.28;4995563;28;20213;-76
2021/01/05 11:23:17;;;;;;;34.40;4.85;;;;;;;23.64;42.03;97764.78;4993519;28;20228;-76
2021/01/05 11:25:44;;;;;;;48.33;4.75;;;;;;;23.64;42.84;97764.78;4996517;28;20197;-76
2021/01/05 11:28:11;;;;;;;67.30;13.13;;;;;;;23.54;43.42;97748.22;4996527;28;20217;-73
2021/01/05 11:30:37;;;;;;;71.40;17.02;;;;;;;23.73;43.55;97756.69;4998137;28;20244;-76
2021/01/05 11:33:04;;;;;;;113.28;29.25;;;;;;;23.71;43.52;97753.38;4997288;28;20277;-72
2021/01/05 11:35:30;;;;;;;206.45;59.42;;;;;;;23.62;44.91;97756.13;4996109;28;20656;-73
2021/01/05 11:37:56;;;;;;;446.00;143.07;;;;;;;23.62;46.79;97750.81;4999095;28;20244;-74
2021/01/05 11:40:22;;;;;;;394.58;125.07;;;;;;;23.77;45.61;97749.97;4997983;28;20213;-74
2021/01/05 11:42:50;;;;;;;386.90;121.90;;;;;;;23.70;46.11;97744.56;4995158;28;20236;-74